sensor_id;sensor_type;location;lat;lon;timestamp;pressure;altitude;pressure_sealevel;temperature;humidity
22047;BME280;11187;49.412;20.956;2023-11-19T00:00:28;95405.47;;;0.21;100.00
22047;BME280;11187;49.412;20.956;2023-11-19T00:03:14;95404.56;;;0.19;100.00
22047;BME280;11187;49.412;20.956;2023-11-19T00:05:48;95398.69;;;0.18;100.00
22047;BME280;11187;49.412;20.956;2023-11-19T00:08:42;95390.25;;;0.18;100.00
22047;BME280;11187;49.412;20.956;2023-11-19T00:11:36;95393.59;;;0.17;100.00
22047;BME280;11187;49.412;20.956;2023-11-19T00:14:20;95393.59;;;0.17;100.00
22047;BME280;11187;49.412;20.956;2023-11-19T00:17:06;95390.25;;;0.18;100.00
22047;BME280;11187;49.412;20.956;2023-11-19T00:19:40;95392.88;;;0.21;100.00
22047;BME280;11187;49.412;20.956;2023-11-19T00:22:26;95404.69;;;0.24;100.00
22047;BME280;11187;49.412;20.956;2023-11-19T00:25:01;95411.34;;;0.22;100.00
22047;BME280;11187;49.412;20.956;2023-11-19T00:27:47;95409.66;;;0.20;100.00
22047;BME280;11187;49.412;20.956;2023-11-19T00:30:21;95408.84;;;0.22;100.00
22047;BME280;11187;49.412;20.956;2023-11-19T00:33:07;95399.66;;;0.24;100.00
22047;BME280;11187;49.412;20.956;2023-11-19T00:35:41;95392.94;;;0.24;100.00
22047;BME280;11187;49.412;20.956;2023-11-19T00:38:34;95392.88;;;0.21;100.00
22047;BME280;11187;49.412;20.956;2023-11-19T00:41:08;95389.53;;;0.20;100.00
22047;BME280;11187;49.412;20.956;2023-11-19T00:43:55;95391.16;;;0.20;100.00
22047;BME280;11187;49.412;20.956;2023-11-19T00:46:49;95398.81;;;0.25;100.00
22047;BME280;11187;49.412;20.956;2023-11-19T00:49:23;95385.44;;;0.26;100.00
22047;BME280;11187;49.412;20.956;2023-11-19T00:52:09;95386.28;;;0.26;100.00
22047;BME280;11187;49.412;20.956;2023-11-19T00:54:43;95384.59;;;0.25;100.00
22047;BME280;11187;49.412;20.956;2023-11-19T00:57:30;95387.13;;;0.27;100.00
22047;BME280;11187;49.412;20.956;2023-11-19T01:00:06;95383.00;;;0.29;100.00
22047;BME280;11187;49.412;20.956;2023-11-19T01:03:00;95383.84;;;0.29;100.00
22047;BME280;11187;49.412;20.956;2023-11-19T01:05:34;95377.97;;;0.29;100.00
22047;BME280;11187;49.412;20.956;2023-11-19T01:08:21;95372.03;;;0.27;100.00
22047;BME280;11187;49.412;20.956;2023-11-19T01:10:55;95368.63;;;0.25;100.00
22047;BME280;11187;49.412;20.956;2023-11-19T01:13:41;95351.88;;;0.25;100.00
22047;BME280;11187;49.412;20.956;2023-11-19T01:16:15;95346.84;;;0.25;100.00
22047;BME280;11187;49.412;20.956;2023-11-19T01:19:02;95348.47;;;0.23;100.00
22047;BME280;11187;49.412;20.956;2023-11-19T01:21:43;95345.03;;;0.21;100.00
22047;BME280;11187;49.412;20.956;2023-11-19T01:24:30;95353.44;;;0.22;100.00
22047;BME280;11187;49.412;20.956;2023-11-19T01:27:04;95356.00;;;0.23;100.00
22047;BME280;11187;49.412;20.956;2023-11-19T01:29:50;95346.72;;;0.22;100.00
22047;BME280;11187;49.412;20.956;2023-11-19T01:32:24;95341.69;;;0.20;100.00
22047;BME280;11187;49.412;20.956;2023-11-19T01:35:17;95326.47;;;0.17;100.00
22047;BME280;11187;49.412;20.956;2023-11-19T01:38:11;95321.44;;;0.17;100.00
22047;BME280;11187;49.412;20.956;2023-11-19T01:40:45;95318.97;;;0.19;100.00
22047;BME280;11187;49.412;20.956;2023-11-19T01:43:38;95312.25;;;0.19;100.00
22047;BME280;11187;49.412;20.956;2023-11-19T01:46:20;95315.69;;;0.22;100.00
22047;BME280;11187;49.412;20.956;2023-11-19T01:49:01;95317.41;;;0.24;100.00
22047;BME280;11187;49.412;20.956;2023-11-19T01:51:42;95320.00;;;0.27;100.00
22047;BME280;11187;49.412;20.956;2023-11-19T01:54:22;95310.00;;;0.30;100.00
22047;BME280;11187;49.412;20.956;2023-11-19T01:57:02;95309.22;;;0.33;100.00
22047;BME280;11187;49.412;20.956;2023-11-19T01:59:42;95312.66;;;0.35;100.00
22047;BME280;11187;49.412;20.956;2023-11-19T02:02:23;95310.91;;;0.34;100.00
22047;BME280;11187;49.412;20.956;2023-11-19T02:05:04;95305.13;;;0.36;100.00
22047;BME280;11187;49.412;20.956;2023-11-19T02:07:44;95308.50;;;0.37;100.00
22047;BME280;11187;49.412;20.956;2023-11-19T02:10:24;95300.84;;;0.32;100.00
22047;BME280;11187;49.412;20.956;2023-11-19T02:13:05;95294.16;;;0.34;100.00
22047;BME280;11187;49.412;20.956;2023-11-19T02:15:46;95284.16;;;0.37;100.00
22047;BME280;11187;49.412;20.956;2023-11-19T02:18:27;95288.38;;;0.38;100.00
22047;BME280;11187;49.412;20.956;2023-11-19T02:21:07;95286.72;;;0.39;100.00
22047;BME280;11187;49.412;20.956;2023-11-19T02:23:50;95269.94;;;0.39;100.00
22047;BME280;11187;49.412;20.956;2023-11-19T02:29:29;95267.31;;;0.35;100.00
22047;BME280;11187;49.412;20.956;2023-11-19T02:32:16;95260.59;;;0.35;100.00
22047;BME280;11187;49.412;20.956;2023-11-19T02:34:49;95262.31;;;0.36;100.00
22047;BME280;11187;49.412;20.956;2023-11-19T02:37:39;95262.28;;;0.35;100.00
22047;BME280;11187;49.412;20.956;2023-11-19T02:40:13;95268.19;;;0.37;100.00
22047;BME280;11187;49.412;20.956;2023-11-19T02:42:59;95263.16;;;0.37;100.00
22047;BME280;11187;49.412;20.956;2023-11-19T02:45:54;95261.31;;;0.30;100.00
22047;BME280;11187;49.412;20.956;2023-11-19T02:48:51;95256.28;;;0.30;100.00
22047;BME280;11187;49.412;20.956;2023-11-19T02:51:45;95243.72;;;0.31;100.00
22047;BME280;11187;49.412;20.956;2023-11-19T02:54:19;95241.28;;;0.34;100.00
22047;BME280;11187;49.412;20.956;2023-11-19T02:57:07;95229.59;;;0.36;100.00
22047;BME280;11187;49.412;20.956;2023-11-19T02:59:46;95223.63;;;0.33;100.00
22047;BME280;11187;49.412;20.956;2023-11-19T03:02:40;95210.97;;;0.31;100.00
22047;BME280;11187;49.412;20.956;2023-11-19T03:05:34;95211.88;;;0.33;100.00
22047;BME280;11187;49.412;20.956;2023-11-19T03:08:08;95216.09;;;0.34;100.00
22047;BME280;11187;49.412;20.956;2023-11-19T03:11:02;95218.63;;;0.36;100.00
22047;BME280;11187;49.412;20.956;2023-11-19T03:13:38;95212.81;;;0.38;100.00
22047;BME280;11187;49.412;20.956;2023-11-19T03:16:24;95205.25;;;0.38;100.00
22047;BME280;11187;49.412;20.956;2023-11-19T03:18:58;95223.75;;;0.39;100.00
22047;BME280;11187;49.412;20.956;2023-11-19T03:21:44;95222.09;;;0.39;100.00
22047;BME280;11187;49.412;20.956;2023-11-19T03:24:18;95215.41;;;0.41;100.00
22047;BME280;11187;49.412;20.956;2023-11-19T03:27:11;95206.97;;;0.39;100.00
22047;BME280;11187;49.412;20.956;2023-11-19T03:29:45;95199.38;;;0.38;100.00
22047;BME280;11187;49.412;20.956;2023-11-19T03:32:38;95183.41;;;0.37;100.00
22047;BME280;11187;49.412;20.956;2023-11-19T03:35:12;95191.81;;;0.38;100.00
22047;BME280;11187;49.412;20.956;2023-11-19T03:38:05;95178.44;;;0.39;100.00
22047;BME280;11187;49.412;20.956;2023-11-19T03:40:39;95174.22;;;0.39;100.00
22047;BME280;11187;49.412;20.956;2023-11-19T03:43:32;95164.13;;;0.38;100.00
22047;BME280;11187;49.412;20.956;2023-11-19T03:46:26;95144.81;;;0.37;100.00
22047;BME280;11187;49.412;20.956;2023-11-19T03:49:07;95158.97;;;0.33;100.00
22047;BME280;11187;49.412;20.956;2023-11-19T03:51:46;95159.03;;;0.35;100.00
22047;BME280;11187;49.412;20.956;2023-11-19T03:54:26;95144.75;;;0.35;100.00
22047;BME280;11187;49.412;20.956;2023-11-19T03:57:06;95150.72;;;0.39;100.00
22047;BME280;11187;49.412;20.956;2023-11-19T03:59:47;95143.19;;;0.40;100.00
22047;BME280;11187;49.412;20.956;2023-11-19T04:02:27;95149.94;;;0.43;100.00
22047;BME280;11187;49.412;20.956;2023-11-19T04:05:08;95153.28;;;0.42;100.00
22047;BME280;11187;49.412;20.956;2023-11-19T04:07:54;95152.47;;;0.43;100.00
22047;BME280;11187;49.412;20.956;2023-11-19T04:10:35;95155.81;;;0.42;100.00
22047;BME280;11187;49.412;20.956;2023-11-19T04:13:21;95151.66;;;0.44;100.00
22047;BME280;11187;49.412;20.956;2023-11-19T04:16:02;95154.13;;;0.43;100.00
22047;BME280;11187;49.412;20.956;2023-11-19T04:18:48;95148.31;;;0.44;100.00
22047;BME280;11187;49.412;20.956;2023-11-19T04:21:28;95131.47;;;0.43;100.00
22047;BME280;11187;49.412;20.956;2023-11-19T04:24:15;95116.38;;;0.43;100.00
22047;BME280;11187;49.412;20.956;2023-11-19T04:26:48;95118.94;;;0.44;100.00
22047;BME280;11187;49.412;20.956;2023-11-19T04:29:35;95123.91;;;0.43;100.00
22047;BME280;11187;49.412;20.956;2023-11-19T04:32:09;95105.44;;;0.42;100.00
22047;BME280;11187;49.412;20.956;2023-11-19T04:34:56;95102.94;;;0.42;100.00
22047;BME280;11187;49.412;20.956;2023-11-19T04:37:29;95105.41;;;0.40;100.00
22047;BME280;11187;49.412;20.956;2023-11-19T04:40:16;95095.25;;;0.36;100.00
22047;BME280;11187;49.412;20.956;2023-11-19T04:42:58;95098.63;;;0.36;100.00
22047;BME280;11187;49.412;20.956;2023-11-19T04:45:53;95093.59;;;0.36;100.00
22047;BME280;11187;49.412;20.956;2023-11-19T04:48:47;95075.94;;;0.35;100.00
22047;BME280;11187;49.412;20.956;2023-11-19T04:51:21;95073.38;;;0.33;100.00
22047;BME280;11187;49.412;20.956;2023-11-19T04:54:08;95059.06;;;0.31;100.00
22047;BME280;11187;49.412;20.956;2023-11-19T04:56:47;95064.91;;;0.30;100.00
22047;BME280;11187;49.412;20.956;2023-11-19T04:59:34;95069.06;;;0.28;100.00
22047;BME280;11187;49.412;20.956;2023-11-19T05:02:09;95071.56;;;0.26;100.00
22047;BME280;11187;49.412;20.956;2023-11-19T05:04:55;95058.06;;;0.24;100.00
22047;BME280;11187;49.412;20.956;2023-11-19T05:07:29;95061.44;;;0.25;100.00
22047;BME280;11187;49.412;20.956;2023-11-19T05:10:09;95043.81;;;0.23;100.00
22047;BME280;11187;49.412;20.956;2023-11-19T05:12:49;95029.50;;;0.20;100.00
22047;BME280;11187;49.412;20.956;2023-11-19T05:15:23;95029.44;;;0.19;100.00
22047;BME280;11187;49.412;20.956;2023-11-19T05:18:09;95025.22;;;0.18;100.00
22047;BME280;11187;49.412;20.956;2023-11-19T05:20:43;95014.31;;;0.17;100.00
22047;BME280;11187;49.412;20.956;2023-11-19T05:23:29;95003.34;;;0.15;100.00
22047;BME280;11187;49.412;20.956;2023-11-19T05:26:03;95005.88;;;0.14;100.00
22047;BME280;11187;49.412;20.956;2023-11-19T05:28:56;95002.50;;;0.15;100.00
22047;BME280;11187;49.412;20.956;2023-11-19T05:31:36;95005.03;;;0.15;100.00
22047;BME280;11187;49.412;20.956;2023-11-19T05:34:30;95011.69;;;0.13;100.00
22047;BME280;11187;49.412;20.956;2023-11-19T05:37:27;95014.97;;;0.09;100.00
22047;BME280;11187;49.412;20.956;2023-11-19T05:40:01;95024.97;;;0.06;100.00
22047;BME280;11187;49.412;20.956;2023-11-19T05:42:55;95024.97;;;0.06;100.00
22047;BME280;11187;49.412;20.956;2023-11-19T05:45:29;95029.19;;;0.05;100.00
22047;BME280;11187;49.412;20.956;2023-11-19T05:48:15;95020.69;;;0.02;100.00
22047;BME280;11187;49.412;20.956;2023-11-19T05:50:57;95014.00;;;0.02;100.00
22047;BME280;11187;49.412;20.956;2023-11-19T05:53:39;95001.41;;;0.02;100.00
22047;BME280;11187;49.412;20.956;2023-11-19T05:56:20;95013.19;;;0.03;100.00
22047;BME280;11187;49.412;20.956;2023-11-19T05:59:05;95014.88;;;0.03;100.00
22047;BME280;11187;49.412;20.956;2023-11-19T06:01:55;95014.91;;;0.06;100.00
22047;BME280;11187;49.412;20.956;2023-11-19T06:04:41;95014.97;;;0.07;100.00
22047;BME280;11187;49.412;20.956;2023-11-19T06:07:17;95020.00;;;0.07;100.00
22047;BME280;11187;49.412;20.956;2023-11-19T06:10:04;95025.88;;;0.08;100.00
22047;BME280;11187;49.412;20.956;2023-11-19T06:12:46;95022.50;;;0.07;100.00
22047;BME280;11187;49.412;20.956;2023-11-19T06:15:28;95019.09;;;0.05;100.00
22047;BME280;11187;49.412;20.956;2023-11-19T06:18:09;95020.78;;;0.05;100.00
22047;BME280;11187;49.412;20.956;2023-11-19T06:20:55;95019.91;;;0.04;100.00
22047;BME280;11187;49.412;20.956;2023-11-19T06:23:36;95005.69;;;0.05;100.00
22047;BME280;11187;49.412;20.956;2023-11-19T06:26:22;94997.25;;;0.04;100.00
22047;BME280;11187;49.412;20.956;2023-11-19T06:28:56;94998.94;;;0.04;100.00
22047;BME280;11187;49.412;20.956;2023-11-19T06:31:42;94994.75;;;0.04;100.00
22047;BME280;11187;49.412;20.956;2023-11-19T06:34:16;94993.09;;;0.05;100.00
22047;BME280;11187;49.412;20.956;2023-11-19T06:37:02;94978.84;;;0.05;100.00
22047;BME280;11187;49.412;20.956;2023-11-19T06:39:40;94977.97;;;0.03;100.00
22047;BME280;11187;49.412;20.956;2023-11-19T06:42:26;94973.81;;;0.05;100.00
22047;BME280;11187;49.412;20.956;2023-11-19T06:45:00;94967.84;;;0.02;100.00
22047;BME280;11187;49.412;20.956;2023-11-19T06:47:46;94974.69;;;0.07;100.00
22047;BME280;11187;49.412;20.956;2023-11-19T06:50:20;94984.81;;;0.10;100.00
22047;BME280;11187;49.412;20.956;2023-11-19T06:53:06;94984.94;;;0.16;100.00
22047;BME280;11187;49.412;20.956;2023-11-19T06:55:50;94980.75;;;0.17;100.00
22047;BME280;11187;49.412;20.956;2023-11-19T06:58:36;94973.13;;;0.14;100.00
22047;BME280;11187;49.412;20.956;2023-11-19T07:01:17;94991.59;;;0.14;100.00
22047;BME280;11187;49.412;20.956;2023-11-19T07:03:57;94995.00;;;0.16;100.00
22047;BME280;11187;49.412;20.956;2023-11-19T07:06:38;95004.19;;;0.16;100.00
22047;BME280;11187;49.412;20.956;2023-11-19T07:09:20;95007.53;;;0.15;100.00
22047;BME280;11187;49.412;20.956;2023-11-19T07:12:04;95008.38;;;0.15;100.00
22047;BME280;11187;49.412;20.956;2023-11-19T07:14:45;95008.38;;;0.15;100.00
22047;BME280;11187;49.412;20.956;2023-11-19T07:17:26;95007.59;;;0.16;100.00
22047;BME280;11187;49.412;20.956;2023-11-19T07:20:07;94999.16;;;0.16;100.00
22047;BME280;11187;49.412;20.956;2023-11-19T07:22:47;94994.25;;;0.22;100.00
22047;BME280;11187;49.412;20.956;2023-11-19T07:25:30;94999.38;;;0.27;100.00
22047;BME280;11187;49.412;20.956;2023-11-19T07:28:11;94989.38;;;0.30;100.00
22047;BME280;11187;49.412;20.956;2023-11-19T07:30:50;94992.75;;;0.32;100.00
22047;BME280;11187;49.412;20.956;2023-11-19T07:33:31;94981.03;;;0.32;100.00
22047;BME280;11187;49.412;20.956;2023-11-19T07:36:12;94973.47;;;0.32;100.00
22047;BME280;11187;49.412;20.956;2023-11-19T07:38:52;94969.25;;;0.31;100.00
22047;BME280;11187;49.412;20.956;2023-11-19T07:41:32;94969.25;;;0.30;100.00
22047;BME280;11187;49.412;20.956;2023-11-19T07:44:20;94968.44;;;0.32;100.00
22047;BME280;11187;49.412;20.956;2023-11-19T07:47:13;94965.06;;;0.32;100.00
22047;BME280;11187;49.412;20.956;2023-11-19T07:50:10;94959.25;;;0.34;100.00
22047;BME280;11187;49.412;20.956;2023-11-19T07:52:44;94945.06;;;0.39;100.00
22047;BME280;11187;49.412;20.956;2023-11-19T07:55:30;94926.69;;;0.45;100.00
22047;BME280;11187;49.412;20.956;2023-11-19T07:58:15;94911.59;;;0.47;100.00
22047;BME280;11187;49.412;20.956;2023-11-19T08:00:57;94898.19;;;0.48;100.00
22047;BME280;11187;49.412;20.956;2023-11-19T08:03:38;94900.72;;;0.49;100.00
22047;BME280;11187;49.412;20.956;2023-11-19T08:06:20;94904.97;;;0.52;100.00
22047;BME280;11187;49.412;20.956;2023-11-19T08:09:01;94902.53;;;0.56;100.00
22047;BME280;11187;49.412;20.956;2023-11-19T08:11:52;94900.00;;;0.55;100.00
22047;BME280;11187;49.412;20.956;2023-11-19T08:14:26;94892.47;;;0.58;100.00
22047;BME280;11187;49.412;20.956;2023-11-19T08:17:12;94894.22;;;0.62;100.00
22047;BME280;11187;49.412;20.956;2023-11-19T08:19:47;94893.41;;;0.63;100.00
22047;BME280;11187;49.412;20.956;2023-11-19T08:22:33;94883.28;;;0.60;100.00
22047;BME280;11187;49.412;20.956;2023-11-19T08:25:07;94905.97;;;0.61;100.00
22047;BME280;11187;49.412;20.956;2023-11-19T08:27:54;94906.06;;;0.66;100.00
22047;BME280;11187;49.412;20.956;2023-11-19T08:30:27;94911.97;;;0.68;100.00
22047;BME280;11187;49.412;20.956;2023-11-19T08:33:14;94923.78;;;0.72;100.00
22047;BME280;11187;49.412;20.956;2023-11-19T08:35:55;94929.72;;;0.76;100.00
22047;BME280;11187;49.412;20.956;2023-11-19T08:38:50;94918.81;;;0.75;100.00
22047;BME280;11187;49.412;20.956;2023-11-19T08:41:32;94923.91;;;0.80;100.00
22047;BME280;11187;49.412;20.956;2023-11-19T08:44:12;94938.31;;;0.87;100.00
22047;BME280;11187;49.412;20.956;2023-11-19T08:46:53;94943.41;;;0.92;100.00
22047;BME280;11187;49.412;20.956;2023-11-19T08:49:32;94942.56;;;0.93;100.00
22047;BME280;11187;49.412;20.956;2023-11-19T08:52:13;94930.91;;;0.98;100.00
22047;BME280;11187;49.412;20.956;2023-11-19T08:54:52;94928.44;;;1.01;100.00
22047;BME280;11187;49.412;20.956;2023-11-19T08:57:33;94928.44;;;1.01;100.00
22047;BME280;11187;49.412;20.956;2023-11-19T09:00:13;94912.53;;;1.05;100.00
22047;BME280;11187;49.412;20.956;2023-11-19T09:02:54;94897.47;;;1.10;100.00
22047;BME280;11187;49.412;20.956;2023-11-19T09:05:33;94890.78;;;1.12;100.00
22047;BME280;11187;49.412;20.956;2023-11-19T09:08:14;94892.56;;;1.19;100.00
22047;BME280;11187;49.412;20.956;2023-11-19T09:11:00;94884.25;;;1.26;100.00
22047;BME280;11187;49.412;20.956;2023-11-19T09:13:34;94884.22;;;1.24;100.00
22047;BME280;11187;49.412;20.956;2023-11-19T09:16:20;94894.38;;;1.28;100.00
22047;BME280;11187;49.412;20.956;2023-11-19T09:19:02;94886.00;;;1.32;100.00
22047;BME280;11187;49.412;20.956;2023-11-19T09:21:41;94883.44;;;1.29;100.00
22047;BME280;11187;49.412;20.956;2023-11-19T09:24:22;94874.19;;;1.28;100.00
22047;BME280;11187;49.412;20.956;2023-11-19T09:27:01;94875.84;;;1.27;100.00
22047;BME280;11187;49.412;20.956;2023-11-19T09:29:42;94875.03;;;1.28;100.00
22047;BME280;11187;49.412;20.956;2023-11-19T09:32:24;94872.50;;;1.28;100.00
22047;BME280;11187;49.412;20.956;2023-11-19T09:35:05;94871.66;;;1.29;100.00
22047;BME280;11187;49.412;20.956;2023-11-19T09:37:46;94870.00;;;1.31;100.00
22047;BME280;11187;49.412;20.956;2023-11-19T09:40:27;94863.38;;;1.36;100.00
22047;BME280;11187;49.412;20.956;2023-11-19T09:43:07;94868.47;;;1.41;100.00
22047;BME280;11187;49.412;20.956;2023-11-19T09:45:54;94871.03;;;1.44;100.00
22047;BME280;11187;49.412;20.956;2023-11-19T09:48:55;94872.75;;;1.46;100.00
22047;BME280;11187;49.412;20.956;2023-11-19T09:51:31;94870.25;;;1.48;100.00
22047;BME280;11187;49.412;20.956;2023-11-19T09:54:24;94873.59;;;1.47;100.00
22047;BME280;11187;49.412;20.956;2023-11-19T09:56:58;94871.09;;;1.49;100.00
22047;BME280;11187;49.412;20.956;2023-11-19T09:59:47;94860.97;;;1.47;100.00
22047;BME280;11187;49.412;20.956;2023-11-19T10:02:29;94844.22;;;1.51;100.00
22047;BME280;11187;49.412;20.956;2023-11-19T10:05:19;94834.13;;;1.52;100.00
22047;BME280;11187;49.412;20.956;2023-11-19T10:07:54;94820.69;;;1.53;100.00
22047;BME280;11187;49.412;20.956;2023-11-19T10:10:40;94821.50;;;1.52;100.00
22047;BME280;11187;49.412;20.956;2023-11-19T10:13:14;94808.06;;;1.50;100.00
22047;BME280;11187;49.412;20.956;2023-11-19T10:16:13;94808.84;;;1.48;100.00
22047;BME280;11187;49.412;20.956;2023-11-19T10:18:53;94803.78;;;1.46;100.00
22047;BME280;11187;49.412;20.956;2023-11-19T10:21:39;94802.06;;;1.45;100.00
22047;BME280;11187;49.412;20.956;2023-11-19T10:24:33;94805.47;;;1.45;100.00
22047;BME280;11187;49.412;20.956;2023-11-19T10:27:28;94802.97;;;1.49;100.00
22047;BME280;11187;49.412;20.956;2023-11-19T10:30:29;94802.19;;;1.53;100.00
22047;BME280;11187;49.412;20.956;2023-11-19T10:33:29;94787.88;;;1.53;100.00
22047;BME280;11187;49.412;20.956;2023-11-19T10:36:22;94777.78;;;1.53;100.00
22047;BME280;11187;49.412;20.956;2023-11-19T10:39:10;94771.03;;;1.52;100.00
22047;BME280;11187;49.412;20.956;2023-11-19T10:42:17;94768.53;;;1.54;100.00
22047;BME280;11187;49.412;20.956;2023-11-19T10:44:50;94761.06;;;1.60;100.00
22047;BME280;11187;49.412;20.956;2023-11-19T10:47:44;94768.66;;;1.61;100.00
22047;BME280;11187;49.412;20.956;2023-11-19T10:50:18;94771.19;;;1.64;100.00
22047;BME280;11187;49.412;20.956;2023-11-19T10:53:05;94777.09;;;1.66;100.00
22047;BME280;11187;49.412;20.956;2023-11-19T10:55:39;94779.66;;;1.70;100.00
22047;BME280;11187;49.412;20.956;2023-11-19T10:58:33;94774.63;;;1.74;100.00
22047;BME280;11187;49.412;20.956;2023-11-19T11:01:35;94762.91;;;1.78;100.00
22047;BME280;11187;49.412;20.956;2023-11-19T11:04:14;94760.44;;;1.84;100.00
22047;BME280;11187;49.412;20.956;2023-11-19T11:07:08;94759.63;;;1.88;100.00
22047;BME280;11187;49.412;20.956;2023-11-19T11:09:42;94747.03;;;1.93;100.00
22047;BME280;11187;49.412;20.956;2023-11-19T11:12:37;94742.00;;;1.93;100.00
22047;BME280;11187;49.412;20.956;2023-11-19T11:15:31;94738.66;;;1.97;100.00
22047;BME280;11187;49.412;20.956;2023-11-19T11:18:07;94731.13;;;2.01;100.00
22047;BME280;11187;49.412;20.956;2023-11-19T11:21:10;94739.56;;;2.03;100.00
22047;BME280;11187;49.412;20.956;2023-11-19T11:33:18;94711.75;;;1.97;100.00
22047;BME280;11187;49.412;20.956;2023-11-19T11:36:04;94710.91;;;1.98;100.00
22047;BME280;11187;49.412;20.956;2023-11-19T11:39:02;94709.22;;;1.96;100.00
22047;BME280;11187;49.412;20.956;2023-11-19T11:50:28;94667.94;;;1.89;100.00
22047;BME280;11187;49.412;20.956;2023-11-19T11:53:25;94664.56;;;1.90;100.00
22047;BME280;11187;49.412;20.956;2023-11-19T11:56:19;94656.16;;;1.93;100.00
22047;BME280;11187;49.412;20.956;2023-11-19T11:59:19;94643.56;;;1.94;100.00
22047;BME280;11187;49.412;20.956;2023-11-19T12:01:59;94636.84;;;1.99;100.00
22047;BME280;11187;49.412;20.956;2023-11-19T12:04:42;94630.16;;;2.03;100.00
22047;BME280;11187;49.412;20.956;2023-11-19T12:07:24;94642.78;;;2.06;100.00
22047;BME280;11187;49.412;20.956;2023-11-19T12:10:08;94642.78;;;2.06;100.00
22047;BME280;11187;49.412;20.956;2023-11-19T12:12:52;94640.28;;;2.04;100.00
22047;BME280;11187;49.412;20.956;2023-11-19T12:15:33;94640.25;;;2.03;100.00
22047;BME280;11187;49.412;20.956;2023-11-19T12:18:18;94634.38;;;2.04;100.00
22047;BME280;11187;49.412;20.956;2023-11-19T12:21:06;94619.22;;;2.02;100.00
22047;BME280;11187;49.412;20.956;2023-11-19T12:23:46;94609.13;;;2.05;100.00
22047;BME280;11187;49.412;20.956;2023-11-19T12:26:37;94604.13;;;2.10;100.00
22047;BME280;11187;49.412;20.956;2023-11-19T12:29:11;94599.94;;;2.14;100.00
22047;BME280;11187;49.412;20.956;2023-11-19T12:31:58;94593.19;;;2.14;100.00
22047;BME280;11187;49.412;20.956;2023-11-19T12:34:39;94588.13;;;2.11;100.00
22047;BME280;11187;49.412;20.956;2023-11-19T12:37:25;94593.16;;;2.08;100.00
22047;BME280;11187;49.412;20.956;2023-11-19T12:40:02;94581.38;;;2.07;100.00
22047;BME280;11187;49.412;20.956;2023-11-19T12:42:50;94583.06;;;2.05;100.00
22047;BME280;11187;49.412;20.956;2023-11-19T12:45:36;94584.72;;;2.03;100.00
22047;BME280;11187;49.412;20.956;2023-11-19T12:48:31;94579.69;;;2.04;100.00
22047;BME280;11187;49.412;20.956;2023-11-19T12:51:04;94574.63;;;2.04;100.00
22047;BME280;11187;49.412;20.956;2023-11-19T12:53:54;94574.63;;;2.03;100.00
22047;BME280;11187;49.412;20.956;2023-11-19T12:56:54;94567.06;;;2.06;100.00
22047;BME280;11187;49.412;20.956;2023-11-19T12:59:55;94567.91;;;2.05;100.00
22047;BME280;11187;49.412;20.956;2023-11-19T13:02:50;94557.78;;;2.03;100.00
22047;BME280;11187;49.412;20.956;2023-11-19T13:05:38;94550.22;;;2.00;100.00
22047;BME280;11187;49.412;20.956;2023-11-19T13:08:11;94556.09;;;2.01;100.00
22047;BME280;11187;49.412;20.956;2023-11-19T13:11:33;94560.28;;;2.02;100.00
22047;BME280;11187;49.412;20.956;2023-11-19T13:14:14;94557.75;;;1.99;100.00
22047;BME280;11187;49.412;20.956;2023-11-19T13:16:54;94552.69;;;1.94;100.00
22047;BME280;11187;49.412;20.956;2023-11-19T13:19:34;94556.91;;;1.94;100.00
22047;BME280;11187;49.412;20.956;2023-11-19T13:22:14;94562.78;;;1.91;100.00
22047;BME280;11187;49.412;20.956;2023-11-19T13:24:54;94564.44;;;1.91;100.00
22047;BME280;11187;49.412;20.956;2023-11-19T13:27:37;94564.44;;;1.91;100.00
22047;BME280;11187;49.412;20.956;2023-11-19T13:30:17;94556.88;;;1.89;100.00
22047;BME280;11187;49.412;20.956;2023-11-19T13:33:04;94557.66;;;1.83;100.00
22047;BME280;11187;49.412;20.956;2023-11-19T13:35:37;94561.03;;;1.81;100.00
22047;BME280;11187;49.412;20.956;2023-11-19T13:38:24;94558.44;;;1.75;100.00
22047;BME280;11187;49.412;20.956;2023-11-19T13:40:57;94555.09;;;1.71;100.00
22047;BME280;11187;49.412;20.956;2023-11-19T13:43:44;94549.16;;;1.67;100.00
22047;BME280;11187;49.412;20.956;2023-11-19T13:46:22;94549.97;;;1.63;100.00
22047;BME280;11187;49.412;20.956;2023-11-19T13:49:10;94534.81;;;1.60;100.00
22047;BME280;11187;49.412;20.956;2023-11-19T13:51:50;94538.16;;;1.56;100.00
22047;BME280;11187;49.412;20.956;2023-11-19T13:54:37;94542.34;;;1.53;100.00
22047;BME280;11187;49.412;20.956;2023-11-19T13:57:11;94535.59;;;1.50;100.00
22047;BME280;11187;49.412;20.956;2023-11-19T13:59:58;94531.34;;;1.48;100.00
22047;BME280;11187;49.412;20.956;2023-11-19T14:02:45;94537.22;;;1.45;100.00
22047;BME280;11187;49.412;20.956;2023-11-19T14:05:33;94528.81;;;1.41;100.00
22047;BME280;11187;49.412;20.956;2023-11-19T14:08:09;94533.81;;;1.37;100.00
22047;BME280;11187;49.412;20.956;2023-11-19T14:10:58;94537.97;;;1.33;100.00
22047;BME280;11187;49.412;20.956;2023-11-19T14:13:32;94532.09;;;1.33;100.00
22047;BME280;11187;49.412;20.956;2023-11-19T14:16:19;94531.28;;;1.32;100.00
22047;BME280;11187;49.412;20.956;2023-11-19T14:18:52;94522.84;;;1.30;100.00
22047;BME280;11187;49.412;20.956;2023-11-19T14:21:39;94521.16;;;1.28;100.00
22047;BME280;11187;49.412;20.956;2023-11-19T14:24:19;94515.22;;;1.27;100.00
22047;BME280;11187;49.412;20.956;2023-11-19T14:26:59;94516.91;;;1.27;100.00
22047;BME280;11187;49.412;20.956;2023-11-19T14:29:39;94517.75;;;1.27;100.00
22047;BME280;11187;49.412;20.956;2023-11-19T14:32:19;94519.44;;;1.25;100.00
22047;BME280;11187;49.412;20.956;2023-11-19T14:34:59;94519.44;;;1.25;100.00